Time;durP1;ratioP1;P1;durP2;ratioP2;P2;SDS_P1;SDS_P2;PMS_P1;PMS_P2;Temp;Humidity;BMP_temperature;BMP_pressure;BME280_temperature;BME280_humidity;BME280_pressure;Samples;Min_cycle;Max_cycle;Signal;HPM_P1;HPM_P2
2023/05/28 00:01:03;;;;;;;13.13;6.07;;;12.50;99.90;;;;;;5078143;28;20053;-58
2023/05/28 00:03:31;;;;;;;18.05;5.85;;;12.40;99.90;;;;;;5079058;28;20041;-58
2023/05/28 00:05:58;;;;;;;18.23;6.20;;;12.40;99.90;;;;;;5079277;28;20412;-57
2023/05/28 00:08:23;;;;;;;19.20;6.45;;;12.40;99.90;;;;;;5077867;28;20072;-58
2023/05/28 00:10:49;;;;;;;19.38;6.47;;;12.40;99.90;;;;;;5079520;28;20052;-58
2023/05/28 00:13:17;;;;;;;18.60;6.32;;;12.50;99.90;;;;;;5076215;28;20055;-58
2023/05/28 00:15:44;;;;;;;16.33;6.13;;;12.50;99.90;;;;;;5079596;28;20074;-58
2023/05/28 00:18:11;;;;;;;18.20;6.40;;;12.40;99.90;;;;;;5077966;28;20040;-58
2023/05/28 00:20:40;;;;;;;18.20;6.53;;;12.40;99.90;;;;;;5060807;28;20048;-57
2023/05/28 00:23:06;;;;;;;20.02;6.70;;;12.40;99.90;;;;;;5078946;28;20064;-58
2023/05/28 00:25:32;;;;;;;20.95;6.95;;;12.40;99.90;;;;;;5077707;28;20051;-58
2023/05/28 00:27:57;;;;;;;14.70;6.80;;;12.30;99.90;;;;;;5079197;28;20045;-58
2023/05/28 00:30:24;;;;;;;16.55;6.45;;;12.40;99.90;;;;;;5077217;28;20120;-58
2023/05/28 00:32:50;;;;;;;17.52;7.00;;;12.30;99.90;;;;;;5079499;28;20051;-58
2023/05/28 00:35:16;;;;;;;18.83;6.68;;;12.30;99.90;;;;;;5077602;28;20052;-57
2023/05/28 00:37:42;;;;;;;16.20;6.63;;;12.20;99.90;;;;;;5078471;28;20051;-57
2023/05/28 00:40:08;;;;;;;15.13;6.43;;;12.30;99.90;;;;;;5078555;28;20036;-57
2023/05/28 00:42:34;;;;;;;14.68;6.43;;;12.30;99.90;;;;;;5059596;28;20075;-59
2023/05/28 00:45:00;;;;;;;18.17;7.68;;;12.30;99.90;;;;;;5078521;28;20052;-58
2023/05/28 00:47:26;;;;;;;20.60;7.13;;;12.20;99.90;;;;;;5076665;28;20106;-57
2023/05/28 00:49:54;;;;;;;19.45;7.03;;;12.20;99.90;;;;;;5079109;28;20067;-58
2023/05/28 00:52:21;;;;;;;15.90;7.40;;;12.20;99.90;;;;;;5077110;28;20481;-58
2023/05/28 00:54:48;;;;;;;17.20;7.18;;;12.10;99.90;;;;;;5078242;28;20044;-58
2023/05/28 00:57:14;;;;;;;16.95;7.75;;;12.10;99.90;;;;;;5077949;28;20100;-58
2023/05/28 00:59:42;;;;;;;17.00;7.63;;;12.10;99.90;;;;;;5076781;28;20477;-58
2023/05/28 01:02:08;;;;;;;16.25;6.70;;;12.10;99.90;;;;;;5078320;28;20051;-58
2023/05/28 01:04:35;;;;;;;19.65;7.18;;;12.10;99.90;;;;;;5076366;28;20096;-58
2023/05/28 01:07:01;;;;;;;15.98;6.78;;;12.10;99.90;;;;;;5078903;28;20044;-57
2023/05/28 01:09:27;;;;;;;14.23;6.63;;;12.00;99.90;;;;;;5059085;28;20528;-58
2023/05/28 01:11:54;;;;;;;18.40;7.13;;;12.00;99.90;;;;;;5077983;28;20047;-58
2023/05/28 01:14:21;;;;;;;17.30;6.75;;;12.00;99.90;;;;;;5077917;28;20045;-58
2023/05/28 01:16:48;;;;;;;18.23;6.78;;;12.00;99.90;;;;;;5076832;28;20055;-58
2023/05/28 01:19:18;;;;;;;13.35;6.03;;;12.00;99.90;;;;;;5078381;28;20473;-58
2023/05/28 01:21:45;;;;;;;13.05;6.00;;;11.90;99.90;;;;;;5076348;28;20044;-58
2023/05/28 01:24:15;;;;;;;15.38;6.63;;;11.90;99.90;;;;;;5078101;28;20044;-58
2023/05/28 01:26:42;;;;;;;14.57;6.70;;;11.80;99.90;;;;;;5076665;28;20151;-58
2023/05/28 01:29:15;;;;;;;16.95;6.43;;;12.00;99.90;;;;;;5077532;28;20055;-58
2023/05/28 01:31:41;;;;;;;20.60;7.07;;;11.80;99.90;;;;;;5077544;28;20049;-57
2023/05/28 01:34:06;;;;;;;15.95;6.55;;;11.90;99.90;;;;;;5076503;28;20181;-58
2023/05/28 01:36:37;;;;;;;20.65;7.25;;;11.90;99.90;;;;;;5078071;28;20056;-57
2023/05/28 01:39:04;;;;;;;26.27;8.32;;;12.00;99.90;;;;;;5076181;28;20056;-58
2023/05/28 01:41:30;;;;;;;18.35;6.20;;;12.00;99.90;;;;;;5078168;28;20190;-58
2023/05/28 01:43:57;;;;;;;17.13;6.63;;;12.00;99.90;;;;;;5067221;28;20057;-57
2023/05/28 01:46:24;;;;;;;13.98;6.55;;;12.00;99.90;;;;;;5057096;28;20052;-58
2023/05/28 01:48:50;;;;;;;16.15;6.68;;;11.90;99.90;;;;;;5057339;28;20048;-57
2023/05/28 01:51:23;;;;;;;18.05;5.97;;;11.80;99.90;;;;;;5056087;28;20068;-58
2023/05/28 01:53:49;;;;;;;16.05;6.70;;;11.80;99.90;;;;;;5057747;28;20087;-57
2023/05/28 01:56:15;;;;;;;19.08;6.90;;;11.80;99.90;;;;;;5055858;28;20044;-57
2023/05/28 01:58:41;;;;;;;20.02;6.53;;;12.00;99.90;;;;;;5057972;28;20037;-58
2023/05/28 02:01:28;;;;;;;18.63;6.70;;;11.90;99.90;;;;;;5038456;28;20045;-58
2023/05/28 02:03:55;;;;;;;19.92;7.20;;;11.80;99.90;;;;;;5055927;28;20055;-58
2023/05/28 02:06:21;;;;;;;12.98;6.53;;;12.00;99.90;;;;;;5057506;28;20056;-58
2023/05/28 02:08:47;;;;;;;18.45;6.50;;;11.90;99.90;;;;;;5055887;28;20105;-58
2023/05/28 02:11:13;;;;;;;19.73;7.00;;;11.80;99.90;;;;;;5057630;28;20045;-58
2023/05/28 02:13:39;;;;;;;19.02;6.50;;;11.80;99.90;;;;;;5055961;28;20511;-58
2023/05/28 02:16:06;;;;;;;21.38;7.25;;;11.90;99.90;;;;;;5057477;28;20045;-57
2023/05/28 02:18:32;;;;;;;20.63;7.93;;;11.90;99.90;;;;;;5056701;28;20049;-56
2023/05/28 02:20:58;;;;;;;22.15;6.95;;;12.00;99.90;;;;;;5056516;28;20076;-58
2023/05/28 02:23:24;;;;;;;17.73;6.65;;;11.80;99.90;;;;;;5057622;28;20041;-58
2023/05/28 02:25:49;;;;;;;18.52;6.60;;;11.80;99.90;;;;;;5055927;28;20083;-57
2023/05/28 02:28:15;;;;;;;20.08;6.95;;;11.80;99.90;;;;;;5057743;28;20041;-57
2023/05/28 02:30:41;;;;;;;18.95;6.07;;;11.80;99.90;;;;;;5055550;28;20048;-58
2023/05/28 02:33:06;;;;;;;19.48;7.20;;;11.80;99.90;;;;;;5057100;28;20049;-58
2023/05/28 02:35:32;;;;;;;15.15;6.97;;;11.70;99.90;;;;;;5056468;28;20556;-57
2023/05/28 02:37:58;;;;;;;20.55;6.78;;;11.70;99.90;;;;;;5059194;28;20037;-58
2023/05/28 02:40:23;;;;;;;18.65;7.53;;;11.70;99.90;;;;;;5060996;28;20052;-57
2023/05/28 02:42:49;;;;;;;18.40;7.15;;;11.60;99.90;;;;;;5059451;28;20045;-58
2023/05/28 02:45:15;;;;;;;14.20;6.82;;;11.60;99.90;;;;;;5061557;28;20037;-58
2023/05/28 02:47:41;;;;;;;19.20;6.85;;;11.50;99.90;;;;;;5059222;28;20109;-58
2023/05/28 02:50:07;;;;;;;23.23;7.57;;;11.60;99.90;;;;;;5061250;28;20041;-58
2023/05/28 02:52:33;;;;;;;16.05;7.05;;;11.50;99.90;;;;;;5060486;28;20449;-58
2023/05/28 02:54:59;;;;;;;18.92;6.93;;;11.40;99.90;;;;;;5060181;28;20045;-57
2023/05/28 02:57:25;;;;;;;18.83;6.78;;;11.50;99.90;;;;;;5060557;28;20564;-58
2023/05/28 02:59:51;;;;;;;19.10;7.20;;;11.60;99.90;;;;;;5059268;28;20523;-58
2023/05/28 03:02:17;;;;;;;18.63;7.03;;;11.50;99.90;;;;;;5060652;28;20033;-58
2023/05/28 03:04:42;;;;;;;19.52;8.05;;;11.40;99.90;;;;;;5058756;28;20067;-57
2023/05/28 03:07:08;;;;;;;20.92;7.35;;;11.40;99.90;;;;;;5060857;28;20041;-57
2023/05/28 03:09:37;;;;;;;19.88;7.28;;;11.40;99.90;;;;;;5059356;28;20041;-57
2023/05/28 03:12:02;;;;;;;17.35;7.05;;;11.40;99.90;;;;;;5059722;28;20049;-58
2023/05/28 03:14:28;;;;;;;18.00;6.70;;;11.50;99.90;;;;;;5060018;28;20049;-58
2023/05/28 03:16:54;;;;;;;20.33;7.80;;;11.50;99.90;;;;;;5058739;28;20052;-58
2023/05/28 03:19:20;;;;;;;16.27;6.50;;;11.50;99.90;;;;;;5060690;28;20087;-58
2023/05/28 03:21:46;;;;;;;17.17;7.55;;;11.50;99.90;;;;;;5040582;28;20052;-57
2023/05/28 03:24:11;;;;;;;19.38;6.60;;;11.40;99.90;;;;;;5060733;28;20130;-58
2023/05/28 03:26:37;;;;;;;16.30;6.90;;;11.50;99.90;;;;;;5059080;28;20055;-57
2023/05/28 03:29:03;;;;;;;16.58;7.28;;;11.30;99.90;;;;;;5059547;28;20033;-58
2023/05/28 03:31:30;;;;;;;18.70;7.38;;;11.40;99.90;;;;;;5059564;28;20064;-57
2023/05/28 03:33:56;;;;;;;18.67;6.53;;;11.40;99.90;;;;;;5058701;28;20171;-57
2023/05/28 03:36:24;;;;;;;20.10;6.88;;;11.30;99.90;;;;;;5060225;28;20045;-58
2023/05/28 03:38:50;;;;;;;16.45;6.80;;;11.40;99.90;;;;;;5058368;28;20044;-58
2023/05/28 03:41:15;;;;;;;19.50;6.85;;;11.40;99.90;;;;;;5060449;28;20591;-57
2023/05/28 03:43:41;;;;;;;18.13;6.82;;;11.20;99.90;;;;;;5058165;28;20052;-57
2023/05/28 03:46:07;;;;;;;18.85;7.45;;;11.20;99.90;;;;;;5059717;28;20103;-58
2023/05/28 03:48:33;;;;;;;15.80;6.32;;;11.20;99.90;;;;;;5059137;28;20048;-58
2023/05/28 03:50:58;;;;;;;21.25;6.80;;;11.30;99.90;;;;;;5058439;28;20448;-59
2023/05/28 03:53:24;;;;;;;18.85;8.07;;;11.10;99.90;;;;;;5042007;28;20048;-57
2023/05/28 03:55:51;;;;;;;19.60;7.05;;;11.10;99.90;;;;;;5057742;28;20052;-57
2023/05/28 03:58:17;;;;;;;16.77;7.15;;;11.20;99.90;;;;;;5059986;28;20099;-57
2023/05/28 04:00:43;;;;;;;19.92;7.07;;;11.20;99.90;;;;;;5057689;28;20103;-58
2023/05/28 04:03:08;;;;;;;19.60;7.30;;;11.10;99.90;;;;;;5059673;28;20046;-57
2023/05/28 04:05:34;;;;;;;16.85;6.25;;;11.30;99.90;;;;;;5058749;28;20124;-57
2023/05/28 04:08:01;;;;;;;15.52;6.43;;;11.30;99.90;;;;;;5058416;28;20041;-58
2023/05/28 04:10:26;;;;;;;19.25;7.70;;;11.30;99.90;;;;;;5059319;28;20128;-57
2023/05/28 04:12:54;;;;;;;18.50;7.15;;;11.20;99.90;;;;;;5057416;28;20515;-58
2023/05/28 04:15:20;;;;;;;16.60;6.70;;;11.20;99.90;;;;;;5059727;28;20852;-58
2023/05/28 04:17:46;;;;;;;13.73;6.30;;;11.20;99.90;;;;;;5057516;28;20068;-58
2023/05/28 04:20:12;;;;;;;15.98;6.72;;;11.30;99.90;;;;;;5059106;28;20413;-58
2023/05/28 04:22:37;;;;;;;15.55;6.55;;;11.30;99.90;;;;;;5040609;28;20041;-58
2023/05/28 04:25:04;;;;;;;18.20;7.40;;;11.20;99.90;;;;;;5058755;28;20036;-58
2023/05/28 04:27:30;;;;;;;16.33;7.72;;;11.20;99.90;;;;;;5059386;28;20071;-58
2023/05/28 04:29:56;;;;;;;14.57;6.80;;;11.30;99.90;;;;;;5057482;28;20052;-57
2023/05/28 04:32:23;;;;;;;15.93;8.02;;;11.50;99.90;;;;;;5059234;28;20226;-58
2023/05/28 04:34:51;;;;;;;18.92;9.60;;;11.50;99.90;;;;;;5057634;28;20044;-58
2023/05/28 04:37:17;;;;;;;19.63;7.40;;;11.40;99.90;;;;;;5059017;28;20041;-58
2023/05/28 04:39:43;;;;;;;18.67;7.53;;;11.40;99.90;;;;;;5058449;28;20040;-57
2023/05/28 04:42:13;;;;;;;18.33;7.43;;;11.50;99.90;;;;;;5057955;28;20083;-58
2023/05/28 04:44:40;;;;;;;17.65;7.32;;;11.40;99.90;;;;;;5058784;28;20084;-58
2023/05/28 04:47:06;;;;;;;18.30;7.25;;;11.40;99.90;;;;;;5057361;28;20804;-58
2023/05/28 04:49:31;;;;;;;17.80;7.97;;;11.50;99.90;;;;;;5059320;28;20083;-58
2023/05/28 04:51:57;;;;;;;21.00;7.82;;;11.40;99.90;;;;;;5057418;28;20045;-57
2023/05/28 04:54:23;;;;;;;19.25;8.35;;;11.40;99.90;;;;;;5058836;28;20099;-57
2023/05/28 04:56:49;;;;;;;16.70;7.20;;;11.50;99.90;;;;;;5057702;28;20087;-57
2023/05/28 04:59:14;;;;;;;17.92;7.63;;;11.60;99.90;;;;;;5057182;28;20326;-58
2023/05/28 05:01:41;;;;;;;19.60;7.75;;;11.80;99.90;;;;;;5058272;28;20037;-57
2023/05/28 05:04:08;;;;;;;14.90;7.25;;;11.90;99.90;;;;;;5057346;28;20036;-58
2023/05/28 05:06:34;;;;;;;19.80;7.20;;;12.10;99.90;;;;;;5059162;28;20048;-57
2023/05/28 05:08:59;;;;;;;19.70;7.30;;;12.10;99.90;;;;;;5056938;28;20051;-58
2023/05/28 05:11:28;;;;;;;14.18;6.13;;;12.30;99.90;;;;;;5058669;28;20077;-57
2023/05/28 05:13:54;;;;;;;17.48;6.07;;;12.30;99.90;;;;;;5057761;28;20084;-57
2023/05/28 05:16:20;;;;;;;21.00;7.30;;;12.50;99.90;;;;;;5057376;28;20048;-58
2023/05/28 05:18:46;;;;;;;17.40;6.70;;;12.60;99.90;;;;;;5058244;28;20044;-58
2023/05/28 05:21:12;;;;;;;15.80;6.50;;;12.60;99.90;;;;;;5056245;28;20053;-58
2023/05/28 05:23:39;;;;;;;15.32;6.25;;;12.70;99.90;;;;;;5058374;28;20135;-58
2023/05/28 05:26:06;;;;;;;16.75;6.55;;;12.80;99.90;;;;;;5056343;28;20056;-57
2023/05/28 05:28:31;;;;;;;15.65;6.78;;;12.80;99.90;;;;;;5057735;28;20505;-58
2023/05/28 05:30:57;;;;;;;19.02;6.60;;;13.00;99.90;;;;;;5056729;28;20041;-58
2023/05/28 05:33:22;;;;;;;15.32;5.97;;;13.10;99.90;;;;;;5056944;28;20092;-57
2023/05/28 05:35:48;;;;;;;13.70;5.40;;;13.10;99.90;;;;;;5039713;28;20095;-57
2023/05/28 05:38:14;;;;;;;15.85;5.47;;;13.30;99.90;;;;;;5056617;28;20060;-57
2023/05/28 05:40:40;;;;;;;15.70;5.45;;;13.50;99.90;;;;;;5058308;28;20096;-60
2023/05/28 05:43:06;;;;;;;15.20;5.07;;;13.40;99.90;;;;;;5055954;28;20049;-58
2023/05/28 05:45:31;;;;;;;13.80;4.97;;;13.50;99.90;;;;;;5058094;28;20076;-57
2023/05/28 05:47:57;;;;;;;12.75;5.32;;;13.60;99.90;;;;;;5056325;28;20044;-57
2023/05/28 05:50:23;;;;;;;15.13;5.25;;;13.80;99.90;;;;;;5057389;28;20102;-57
2023/05/28 05:52:48;;;;;;;13.13;5.50;;;13.80;99.90;;;;;;5057152;28;20128;-56
2023/05/28 05:55:14;;;;;;;12.73;4.40;;;13.90;99.90;;;;;;5056107;28;20063;-55
2023/05/28 05:57:41;;;;;;;13.95;5.00;;;14.00;99.90;;;;;;5057484;28;20048;-57
2023/05/28 06:00:10;;;;;;;15.25;4.72;;;13.90;99.90;;;;;;5055872;28;20048;-57
2023/05/28 06:02:37;;;;;;;16.48;4.80;;;14.20;99.90;;;;;;5058112;28;20057;-56
2023/05/28 06:05:03;;;;;;;13.65;4.55;;;14.20;99.90;;;;;;5056303;28;20106;-56
2023/05/28 06:07:29;;;;;;;16.45;5.10;;;14.10;99.90;;;;;;5057451;28;20218;-57
2023/05/28 06:09:55;;;;;;;19.38;6.15;;;14.10;99.90;;;;;;5057283;28;20045;-57
2023/05/28 06:12:21;;;;;;;13.38;4.97;;;14.10;99.90;;;;;;5042199;28;20056;-57
2023/05/28 06:14:47;;;;;;;15.88;5.13;;;14.00;99.90;;;;;;5061817;28;20067;-56
2023/05/28 06:17:12;;;;;;;11.85;5.43;;;13.90;99.90;;;;;;5041675;28;20455;-57
2023/05/28 06:19:38;;;;;;;16.88;5.45;;;13.80;99.90;;;;;;5061976;28;20049;-57
2023/05/28 06:22:04;;;;;;;16.25;6.32;;;14.00;99.90;;;;;;5059966;28;20033;-57
2023/05/28 06:24:30;;;;;;;16.85;5.50;;;14.00;99.90;;;;;;5043576;28;20041;-57
2023/05/28 06:26:56;;;;;;;15.35;5.07;;;14.10;99.90;;;;;;5043259;28;20067;-57
2023/05/28 06:29:22;;;;;;;16.30;5.75;;;14.20;99.90;;;;;;5060610;28;20045;-56
2023/05/28 06:31:48;;;;;;;14.10;5.35;;;14.20;99.90;;;;;;5061206;28;20140;-57
2023/05/28 06:34:14;;;;;;;14.85;5.05;;;14.40;99.90;;;;;;5059596;28;20041;-61
2023/05/28 06:36:39;;;;;;;12.73;5.30;;;14.40;99.90;;;;;;5061610;28;20055;-57
2023/05/28 06:39:05;;;;;;;13.57;4.78;;;14.40;99.90;;;;;;5059347;28;20056;-57
2023/05/28 06:41:31;;;;;;;16.05;5.45;;;14.50;99.90;;;;;;5061433;28;20045;-57
2023/05/28 06:43:57;;;;;;;16.15;6.47;;;14.60;99.90;;;;;;5060222;28;20053;-57
2023/05/28 06:46:23;;;;;;;17.00;6.78;;;14.50;99.90;;;;;;5060364;28;20041;-57
2023/05/28 06:48:48;;;;;;;21.17;9.40;;;14.70;99.90;;;;;;5060699;28;20049;-56
2023/05/28 06:51:14;;;;;;;24.30;9.68;;;14.70;99.90;;;;;;5059154;28;20048;-57
2023/05/28 06:53:40;;;;;;;16.08;8.45;;;14.60;99.90;;;;;;5061246;28;20574;-57
2023/05/28 06:56:06;;;;;;;20.63;8.48;;;14.80;99.90;;;;;;5059668;28;20045;-56
2023/05/28 06:58:32;;;;;;;14.23;6.03;;;14.90;99.90;;;;;;5061592;28;20057;-57
2023/05/28 07:01:01;;;;;;;14.27;5.60;;;15.00;99.90;;;;;;5059834;28;20041;-56
2023/05/28 07:03:27;;;;;;;11.13;4.50;;;15.10;99.90;;;;;;5060560;28;20072;-57
2023/05/28 07:05:53;;;;;;;12.32;4.70;;;15.10;99.90;;;;;;5060868;28;20041;-57
2023/05/28 07:08:19;;;;;;;10.77;4.75;;;15.10;99.90;;;;;;5059435;28;20051;-58
2023/05/28 07:10:44;;;;;;;10.85;4.45;;;15.30;99.90;;;;;;5061324;28;20041;-55
2023/05/28 07:13:10;;;;;;;10.65;4.95;;;15.20;99.90;;;;;;5059576;28;20045;-56
2023/05/28 07:15:36;;;;;;;11.70;5.10;;;15.20;99.90;;;;;;5060968;28;20056;-56
2023/05/28 07:18:01;;;;;;;12.60;5.15;;;15.30;99.90;;;;;;5025442;28;20116;-57
2023/05/28 07:20:28;;;;;;;12.82;5.30;;;15.30;99.90;;;;;;5059814;28;20053;-57
2023/05/28 07:22:53;;;;;;;13.32;5.65;;;15.50;99.90;;;;;;5059672;28;20116;-59
2023/05/28 07:25:19;;;;;;;13.40;5.88;;;15.50;99.90;;;;;;5058925;28;20029;-57
2023/05/28 07:27:45;;;;;;;12.48;5.82;;;15.70;99.90;;;;;;5060846;28;20096;-56
2023/05/28 07:30:11;;;;;;;8.90;4.90;;;15.70;99.90;;;;;;5058861;28;20071;-56
2023/05/28 07:32:37;;;;;;;10.30;4.40;;;15.80;99.90;;;;;;5042892;28;20481;-57
2023/05/28 07:35:03;;;;;;;10.38;4.68;;;15.80;99.90;;;;;;5059239;28;20095;-55
2023/05/28 07:37:29;;;;;;;11.32;4.78;;;15.90;99.90;;;;;;5060102;28;20083;-57
2023/05/28 07:39:55;;;;;;;8.85;4.15;;;16.00;99.90;;;;;;5060299;28;20036;-57
2023/05/28 07:42:20;;;;;;;9.15;4.03;;;16.20;99.90;;;;;;5059001;28;20488;-57
2023/05/28 07:44:46;;;;;;;11.10;4.30;;;16.20;99.90;;;;;;5060446;28;20060;-58
2023/05/28 07:47:13;;;;;;;10.07;4.18;;;16.20;99.90;;;;;;5058629;28;20075;-57
2023/05/28 07:49:38;;;;;;;10.45;4.05;;;16.30;99.90;;;;;;5060437;28;20080;-57
2023/05/28 07:52:04;;;;;;;11.23;3.97;;;16.20;99.90;;;;;;5058868;28;20037;-58
2023/05/28 07:54:30;;;;;;;10.55;4.82;;;16.40;99.90;;;;;;5059755;28;20041;-58
2023/05/28 07:56:56;;;;;;;10.60;4.13;;;16.30;99.90;;;;;;5059453;28;20056;-62
2023/05/28 07:59:22;;;;;;;8.98;3.80;;;16.50;99.90;;;;;;5058914;28;20101;-57
2023/05/28 08:01:47;;;;;;;10.15;4.32;;;16.50;99.90;;;;;;5059976;28;20459;-57
2023/05/28 08:04:13;;;;;;;13.07;4.35;;;16.70;99.90;;;;;;5058224;28;20097;-57
2023/05/28 08:06:39;;;;;;;9.30;3.40;;;16.70;99.90;;;;;;5042705;28;20055;-57
2023/05/28 08:09:05;;;;;;;10.52;3.85;;;16.70;99.90;;;;;;5058438;28;20033;-54
2023/05/28 08:11:31;;;;;;;8.70;4.00;;;16.60;99.90;;;;;;5059819;28;20093;-57
2023/05/28 08:13:57;;;;;;;10.35;4.25;;;16.70;99.90;;;;;;5059176;28;20076;-58
2023/05/28 08:16:23;;;;;;;10.50;3.78;;;16.80;99.90;;;;;;5058690;28;20049;-57
2023/05/28 08:18:49;;;;;;;9.95;4.00;;;17.00;99.90;;;;;;5059488;28;20049;-57
2023/05/28 08:21:15;;;;;;;9.15;4.03;;;17.00;99.90;;;;;;5057900;28;20041;-57
2023/05/28 08:23:40;;;;;;;16.80;5.40;;;17.10;99.90;;;;;;5060232;28;20487;-58
2023/05/28 08:26:06;;;;;;;11.60;4.45;;;17.00;99.90;;;;;;5039910;28;20044;-57
2023/05/28 08:28:32;;;;;;;8.88;3.60;;;17.20;99.90;;;;;;5059770;28;20044;-58
2023/05/28 08:30:57;;;;;;;10.20;4.75;;;17.20;99.90;;;;;;5040459;28;20048;-55
2023/05/28 08:33:24;;;;;;;9.00;4.15;;;17.20;99.90;;;;;;5058077;28;20070;-57
2023/05/28 08:35:49;;;;;;;11.73;4.50;;;17.20;99.90;;;;;;5058337;28;20052;-57
2023/05/28 08:38:15;;;;;;;11.32;4.32;;;17.20;99.90;;;;;;5057751;28;20041;-57
2023/05/28 08:40:46;;;;;;;13.20;5.72;;;17.20;99.90;;;;;;5059598;28;20056;-58
2023/05/28 08:43:11;;;;;;;11.02;4.68;;;17.30;99.90;;;;;;5060331;28;20065;-57
2023/05/28 08:45:37;;;;;;;10.13;4.80;;;17.20;99.90;;;;;;5079578;28;20099;-58
2023/05/28 08:48:06;;;;;;;9.55;4.88;;;17.30;99.90;;;;;;5060119;28;20138;-57
2023/05/28 08:50:35;;;;;;;12.95;5.03;;;17.40;99.90;;;;;;5078478;28;20080;-58
2023/05/28 08:53:02;;;;;;;12.13;5.60;;;17.30;99.90;;;;;;5079239;28;20131;-58
2023/05/28 08:55:35;;;;;;;12.82;5.00;;;17.50;99.90;;;;;;5141488;27;20383;-57
2023/05/28 08:58:03;;;;;;;12.40;4.97;;;17.60;99.90;;;;;;5141483;27;20043;-58
2023/05/28 09:00:28;;;;;;;11.38;6.57;;;17.60;99.90;;;;;;5140304;27;20039;-58
2023/05/28 09:02:54;;;;;;;11.18;4.85;;;17.70;99.90;;;;;;5141671;27;20043;-58
2023/05/28 09:05:20;;;;;;;11.00;4.55;;;17.80;99.90;;;;;;5140086;27;20600;-58
2023/05/28 09:07:46;;;;;;;12.43;5.82;;;17.90;99.90;;;;;;5141521;27;20047;-57
2023/05/28 09:10:12;;;;;;;12.57;4.80;;;18.10;99.90;;;;;;5140238;27;20362;-58
2023/05/28 09:12:40;;;;;;;9.82;4.63;;;18.10;99.90;;;;;;5141303;27;20152;-57
2023/05/28 09:15:07;;;;;;;11.20;4.68;;;18.20;99.90;;;;;;5140603;27;20055;-57
2023/05/28 09:17:34;;;;;;;12.93;4.90;;;18.30;99.90;;;;;;5140459;27;20027;-58
2023/05/28 09:19:59;;;;;;;14.02;5.40;;;18.20;99.90;;;;;;5141285;27;20051;-57
2023/05/28 09:22:27;;;;;;;10.98;5.55;;;18.40;99.90;;;;;;5139617;27;20050;-57
2023/05/28 09:24:54;;;;;;;15.75;7.07;;;18.40;99.90;;;;;;5140905;27;20059;-58
2023/05/28 09:27:21;;;;;;;13.05;5.97;;;18.20;99.90;;;;;;5139678;27;20046;-58
2023/05/28 09:29:47;;;;;;;12.13;6.03;;;18.30;99.90;;;;;;5140689;27;20491;-58
2023/05/28 09:32:20;;;;;;;12.75;6.32;;;18.30;99.90;;;;;;5138899;27;20077;-58
2023/05/28 09:34:46;;;;;;;10.95;5.55;;;18.40;99.90;;;;;;5139973;27;20095;-58
2023/05/28 09:37:14;;;;;;;14.05;6.32;;;18.40;99.90;;;;;;5140886;27;20032;-58
2023/05/28 09:39:40;;;;;;;12.27;5.93;;;18.20;97.80;;;;;;5139543;27;20039;-58
2023/05/28 09:42:09;;;;;;;11.05;5.57;;;18.30;99.00;;;;;;5139377;28;20072;-58
2023/05/28 09:44:36;;;;;;;13.27;5.55;;;18.50;98.50;;;;;;5139469;27;20047;-58
2023/05/28 09:47:17;;;;;;;13.57;5.90;;;18.50;97.40;;;;;;5140456;27;20114;-58
2023/05/28 09:49:47;;;;;;;10.07;5.30;;;18.70;99.20;;;;;;5139098;28;20044;-57
2023/05/28 09:52:22;;;;;;;13.45;5.15;;;18.90;98.00;;;;;;5139025;27;20098;-57
2023/05/28 09:54:53;;;;;;;9.85;4.95;;;18.80;96.00;;;;;;5139527;27;20072;-58
2023/05/28 09:57:24;;;;;;;13.70;5.82;;;18.70;96.60;;;;;;5137617;27;20041;-58
2023/05/28 09:59:56;;;;;;;11.57;4.93;;;19.00;97.30;;;;;;5139446;27;20036;-57
2023/05/28 10:02:25;;;;;;;;;;;18.90;93.30;;;;;;5139311;27;20048;-58
2023/05/28 10:04:56;;;;;;;8.80;4.32;;;18.90;94.80;;;;;;5136466;27;19916;-58
2023/05/28 10:07:25;;;;;;;9.48;4.65;;;18.90;96.10;;;;;;5125600;28;20078;-58
2023/05/28 10:09:54;;;;;;;9.52;4.00;;;19.10;97.00;;;;;;5123692;28;20048;-58
2023/05/28 10:12:25;;;;;;;8.70;3.55;;;19.10;95.70;;;;;;5125750;28;20048;-58
2023/05/28 10:14:51;;;;;;;10.30;3.67;;;19.10;95.80;;;;;;5124135;28;20051;-57
2023/05/28 10:17:17;;;;;;;7.30;2.90;;;19.20;95.60;;;;;;5124889;27;20028;-58
2023/05/28 10:19:46;;;;;;;7.90;3.38;;;19.00;92.40;;;;;;5125271;28;20065;-58
2023/05/28 10:22:13;;;;;;;8.43;3.20;;;19.10;92.80;;;;;;5123625;28;20043;-58
2023/05/28 10:24:39;;;;;;;6.65;2.90;;;19.10;92.50;;;;;;5124341;28;20035;-58
2023/05/28 10:27:06;;;;;;;8.13;3.00;;;19.20;92.50;;;;;;5123508;28;20032;-58
2023/05/28 10:29:46;;;;;;;10.02;2.80;;;19.20;91.80;;;;;;5125599;28;20040;-58
2023/05/28 10:32:16;;;;;;;8.48;3.08;;;19.30;91.30;;;;;;5123893;28;20044;-58
2023/05/28 10:34:42;;;;;;;9.68;2.85;;;19.50;92.70;;;;;;5123844;28;20054;-58
2023/05/28 10:37:10;;;;;;;7.75;2.63;;;19.40;94.10;;;;;;5125365;28;20044;-57
2023/05/28 10:39:45;;;;;;;8.38;3.17;;;19.60;94.40;;;;;;5123134;28;20044;-58
2023/05/28 10:42:15;;;;;;;9.52;3.58;;;19.60;93.70;;;;;;5125139;28;20112;-58
2023/05/28 10:44:59;;;;;;;8.80;3.55;;;19.60;94.50;;;;;;5123375;28;20058;-58
2023/05/28 10:47:32;;;;;;;6.95;2.63;;;19.50;95.20;;;;;;5122656;28;20126;-59
2023/05/28 10:50:10;;;;;;;7.55;3.13;;;19.60;95.10;;;;;;5125122;27;20067;-59
2023/05/28 10:52:39;;;;;;;8.15;2.97;;;19.50;96.00;;;;;;5122720;28;20075;-58
2023/05/28 10:55:07;;;;;;;9.18;3.15;;;19.60;96.20;;;;;;5124126;28;20411;-58
2023/05/28 10:57:44;;;;;;;9.90;3.35;;;19.70;97.60;;;;;;5122821;28;20490;-58
2023/05/28 11:00:14;;;;;;;11.73;3.45;;;19.90;99.00;;;;;;5123632;28;20065;-57
2023/05/28 11:02:44;;;;;;;9.82;3.30;;;19.70;99.70;;;;;;5124539;28;20099;-58
2023/05/28 11:05:10;;;;;;;8.68;2.95;;;19.80;99.60;;;;;;5122548;28;20040;-58
2023/05/28 11:07:41;;;;;;;10.07;4.55;;;19.70;99.80;;;;;;5124280;28;20044;-58
2023/05/28 11:10:12;;;;;;;8.82;3.53;;;19.80;99.90;;;;;;5122433;28;20055;-58
2023/05/28 11:12:39;;;;;;;9.75;3.78;;;19.60;99.90;;;;;;5124264;28;20054;-58
2023/05/28 11:15:07;;;;;;;9.25;3.30;;;19.50;99.90;;;;;;5123213;28;20086;-57
2023/05/28 11:17:38;;;;;;;10.70;3.55;;;19.60;99.90;;;;;;5121778;28;20054;-58
2023/05/28 11:20:05;;;;;;;11.68;4.20;;;19.70;99.90;;;;;;5123820;28;20478;-58
2023/05/28 11:22:38;;;;;;;11.63;4.30;;;19.30;99.90;;;;;;5122246;28;20104;-58
2023/05/28 11:25:08;;;;;;;9.30;3.20;;;19.50;99.90;;;;;;5123893;28;20047;-58
2023/05/28 11:27:35;;;;;;;11.13;3.50;;;19.40;99.90;;;;;;5120913;28;20054;-57
2023/05/28 11:30:12;;;;;;;14.05;4.10;;;19.60;99.90;;;;;;5123446;28;20043;-58
2023/05/28 11:32:38;;;;;;;9.98;4.07;;;19.50;99.90;;;;;;5123803;28;20047;-58
2023/05/28 11:35:04;;;;;;;10.60;3.40;;;19.50;99.90;;;;;;5121746;28;20380;-58
2023/05/28 11:37:34;;;;;;;10.02;3.80;;;19.50;99.90;;;;;;5123783;28;20039;-58
2023/05/28 11:40:05;;;;;;;10.95;4.13;;;19.50;99.90;;;;;;5121750;27;20047;-58
2023/05/28 11:42:31;;;;;;;13.65;4.65;;;19.30;99.90;;;;;;5123802;28;20054;-57
2023/05/28 11:44:57;;;;;;;14.88;3.88;;;19.40;99.90;;;;;;5122672;28;20163;-57
2023/05/28 11:47:24;;;;;;;8.27;3.30;;;19.50;99.90;;;;;;5122969;28;20492;-58
2023/05/28 11:49:50;;;;;;;10.57;3.40;;;19.50;99.90;;;;;;5123617;28;20036;-58
2023/05/28 11:52:18;;;;;;;7.35;2.92;;;19.50;99.90;;;;;;5121523;28;20043;-58
2023/05/28 11:54:47;;;;;;;10.98;3.22;;;19.60;99.90;;;;;;5123239;28;20059;-58
2023/05/28 11:57:23;;;;;;;7.40;3.20;;;19.60;99.90;;;;;;5121376;28;20091;-57
2023/05/28 12:00:00;;;;;;;11.95;3.28;;;19.60;99.90;;;;;;5123117;28;20067;-58
2023/05/28 12:02:26;;;;;;;12.73;3.80;;;19.80;99.90;;;;;;5122802;28;20051;-58
2023/05/28 12:05:00;;;;;;;12.18;3.40;;;19.70;99.90;;;;;;5120274;28;20031;-58
2023/05/28 12:07:34;;;;;;;12.57;3.88;;;19.70;99.90;;;;;;5122817;28;20047;-58
2023/05/28 12:10:09;;;;;;;11.30;4.25;;;19.60;99.90;;;;;;5120974;28;20062;-58
2023/05/28 12:12:39;;;;;;;12.52;3.83;;;19.30;99.90;;;;;;5123017;28;20492;-58
2023/05/28 12:15:06;;;;;;;11.60;4.50;;;19.40;99.90;;;;;;5122149;28;20079;-58
2023/05/28 12:17:39;;;;;;;12.07;3.70;;;19.60;99.90;;;;;;5121953;28;20050;-58
2023/05/28 12:20:07;;;;;;;13.27;3.92;;;19.30;99.90;;;;;;5123029;28;20107;-58
2023/05/28 12:22:33;;;;;;;11.55;3.80;;;19.10;99.90;;;;;;5120990;28;20073;-58
2023/05/28 12:25:00;;;;;;;11.18;3.30;;;19.20;99.90;;;;;;5122833;28;20075;-58
2023/05/28 12:27:26;;;;;;;17.58;5.32;;;18.80;99.90;;;;;;5119738;28;20410;-58
2023/05/28 12:29:52;;;;;;;11.57;2.92;;;18.90;99.90;;;;;;5121032;28;20058;-58
2023/05/28 12:32:19;;;;;;;9.75;2.90;;;18.90;99.90;;;;;;5121959;28;20036;-58
2023/05/28 12:34:44;;;;;;;10.93;4.75;;;18.80;99.90;;;;;;5121557;28;20114;-58
2023/05/28 12:37:10;;;;;;;9.93;4.20;;;18.90;99.90;;;;;;5122502;28;20043;-58